sensor_id;sensor_type;location;lat;lon;timestamp;P1;durP1;ratioP1;P2;durP2;ratioP2
47912;SDS011;33676;51.006;17.180;2023-04-03T00:01:31;8.00;;;3.40;;
47912;SDS011;33676;51.006;17.180;2023-04-03T00:04:00;6.00;;;3.80;;
47912;SDS011;33676;51.006;17.180;2023-04-03T00:06:29;5.40;;;3.20;;
47912;SDS011;33676;51.006;17.180;2023-04-03T00:08:57;7.20;;;4.00;;
47912;SDS011;33676;51.006;17.180;2023-04-03T00:11:26;5.40;;;3.60;;
47912;SDS011;33676;51.006;17.180;2023-04-03T00:13:54;6.00;;;3.20;;
47912;SDS011;33676;51.006;17.180;2023-04-03T00:16:23;7.40;;;4.00;;
47912;SDS011;33676;51.006;17.180;2023-04-03T00:18:51;6.10;;;3.30;;
47912;SDS011;33676;51.006;17.180;2023-04-03T00:21:20;5.20;;;3.10;;
47912;SDS011;33676;51.006;17.180;2023-04-03T00:23:48;8.80;;;4.10;;
47912;SDS011;33676;51.006;17.180;2023-04-03T00:26:17;9.70;;;3.80;;
47912;SDS011;33676;51.006;17.180;2023-04-03T00:28:45;9.70;;;4.10;;
47912;SDS011;33676;51.006;17.180;2023-04-03T00:31:15;6.00;;;3.10;;
47912;SDS011;33676;51.006;17.180;2023-04-03T00:33:44;7.40;;;2.80;;
47912;SDS011;33676;51.006;17.180;2023-04-03T00:36:13;4.30;;;3.30;;
47912;SDS011;33676;51.006;17.180;2023-04-03T00:38:42;3.70;;;2.40;;
47912;SDS011;33676;51.006;17.180;2023-04-03T00:41:10;4.80;;;3.00;;
47912;SDS011;33676;51.006;17.180;2023-04-03T00:43:39;12.20;;;4.50;;
47912;SDS011;33676;51.006;17.180;2023-04-03T00:46:07;15.00;;;3.80;;
47912;SDS011;33676;51.006;17.180;2023-04-03T00:48:41;4.50;;;3.10;;
47912;SDS011;33676;51.006;17.180;2023-04-03T00:53:54;6.60;;;4.30;;
47912;SDS011;33676;51.006;17.180;2023-04-03T00:56:27;7.60;;;3.50;;
47912;SDS011;33676;51.006;17.180;2023-04-03T00:59:12;5.60;;;3.00;;
47912;SDS011;33676;51.006;17.180;2023-04-03T01:01:43;10.60;;;3.70;;
47912;SDS011;33676;51.006;17.180;2023-04-03T01:04:30;6.10;;;3.10;;
47912;SDS011;33676;51.006;17.180;2023-04-03T01:07:23;4.20;;;2.90;;
47912;SDS011;33676;51.006;17.180;2023-04-03T01:09:55;7.60;;;3.60;;
47912;SDS011;33676;51.006;17.180;2023-04-03T01:12:31;6.90;;;2.70;;
47912;SDS011;33676;51.006;17.180;2023-04-03T01:15:11;11.00;;;4.90;;
47912;SDS011;33676;51.006;17.180;2023-04-03T01:17:45;7.60;;;3.30;;
47912;SDS011;33676;51.006;17.180;2023-04-03T01:25:40;4.50;;;3.00;;
47912;SDS011;33676;51.006;17.180;2023-04-03T01:28:20;5.40;;;2.80;;
47912;SDS011;33676;51.006;17.180;2023-04-03T01:33:59;4.50;;;2.80;;
47912;SDS011;33676;51.006;17.180;2023-04-03T01:36:29;5.80;;;3.30;;
47912;SDS011;33676;51.006;17.180;2023-04-03T01:38:59;7.50;;;4.30;;
47912;SDS011;33676;51.006;17.180;2023-04-03T01:41:28;3.00;;;2.40;;
47912;SDS011;33676;51.006;17.180;2023-04-03T01:43:57;4.00;;;2.40;;
47912;SDS011;33676;51.006;17.180;2023-04-03T01:46:25;7.50;;;3.00;;
47912;SDS011;33676;51.006;17.180;2023-04-03T01:48:54;7.80;;;3.80;;
47912;SDS011;33676;51.006;17.180;2023-04-03T01:51:22;6.90;;;2.80;;
47912;SDS011;33676;51.006;17.180;2023-04-03T01:53:51;3.30;;;2.40;;
47912;SDS011;33676;51.006;17.180;2023-04-03T01:56:19;5.40;;;2.80;;
47912;SDS011;33676;51.006;17.180;2023-04-03T01:58:48;7.10;;;2.50;;
47912;SDS011;33676;51.006;17.180;2023-04-03T02:01:17;6.40;;;2.80;;
47912;SDS011;33676;51.006;17.180;2023-04-03T02:03:45;5.00;;;2.40;;
47912;SDS011;33676;51.006;17.180;2023-04-03T02:06:14;7.40;;;2.70;;
47912;SDS011;33676;51.006;17.180;2023-04-03T02:08:43;6.10;;;2.70;;
47912;SDS011;33676;51.006;17.180;2023-04-03T02:11:11;8.50;;;3.80;;
47912;SDS011;33676;51.006;17.180;2023-04-03T02:13:39;2.50;;;2.20;;
47912;SDS011;33676;51.006;17.180;2023-04-03T02:16:11;5.40;;;3.20;;
47912;SDS011;33676;51.006;17.180;2023-04-03T02:18:41;5.40;;;3.10;;
47912;SDS011;33676;51.006;17.180;2023-04-03T02:21:09;10.50;;;3.40;;
47912;SDS011;33676;51.006;17.180;2023-04-03T02:23:38;5.10;;;2.80;;
47912;SDS011;33676;51.006;17.180;2023-04-03T02:26:10;5.10;;;2.10;;
47912;SDS011;33676;51.006;17.180;2023-04-03T02:28:40;5.70;;;2.90;;
47912;SDS011;33676;51.006;17.180;2023-04-03T02:31:10;5.60;;;3.60;;
47912;SDS011;33676;51.006;17.180;2023-04-03T02:33:39;5.80;;;3.40;;
47912;SDS011;33676;51.006;17.180;2023-04-03T02:36:08;6.80;;;3.00;;
47912;SDS011;33676;51.006;17.180;2023-04-03T02:38:37;6.40;;;3.00;;
47912;SDS011;33676;51.006;17.180;2023-04-03T02:41:07;9.30;;;4.20;;
47912;SDS011;33676;51.006;17.180;2023-04-03T02:43:38;12.20;;;3.20;;
47912;SDS011;33676;51.006;17.180;2023-04-03T02:46:07;10.00;;;3.40;;
47912;SDS011;33676;51.006;17.180;2023-04-03T02:48:36;10.40;;;3.60;;
47912;SDS011;33676;51.006;17.180;2023-04-03T02:51:04;3.80;;;2.50;;
47912;SDS011;33676;51.006;17.180;2023-04-03T02:53:33;7.30;;;2.80;;
47912;SDS011;33676;51.006;17.180;2023-04-03T02:56:01;7.50;;;3.40;;
47912;SDS011;33676;51.006;17.180;2023-04-03T02:58:30;4.50;;;2.30;;
47912;SDS011;33676;51.006;17.180;2023-04-03T03:00:58;6.20;;;3.50;;
47912;SDS011;33676;51.006;17.180;2023-04-03T03:03:27;5.70;;;3.00;;
47912;SDS011;33676;51.006;17.180;2023-04-03T03:06:03;6.10;;;3.60;;
47912;SDS011;33676;51.006;17.180;2023-04-03T03:08:33;5.50;;;3.60;;
47912;SDS011;33676;51.006;17.180;2023-04-03T03:11:03;4.70;;;3.30;;
47912;SDS011;33676;51.006;17.180;2023-04-03T03:13:32;3.80;;;2.60;;
47912;SDS011;33676;51.006;17.180;2023-04-03T03:16:01;3.70;;;3.00;;
47912;SDS011;33676;51.006;17.180;2023-04-03T03:18:30;8.70;;;3.50;;
47912;SDS011;33676;51.006;17.180;2023-04-03T03:21:01;11.10;;;3.20;;
47912;SDS011;33676;51.006;17.180;2023-04-03T03:23:31;7.10;;;3.00;;
47912;SDS011;33676;51.006;17.180;2023-04-03T03:26:05;7.70;;;3.00;;
47912;SDS011;33676;51.006;17.180;2023-04-03T03:28:36;7.30;;;3.00;;
47912;SDS011;33676;51.006;17.180;2023-04-03T03:31:06;11.60;;;3.90;;
47912;SDS011;33676;51.006;17.180;2023-04-03T03:33:34;7.10;;;3.20;;
47912;SDS011;33676;51.006;17.180;2023-04-03T03:36:03;5.20;;;3.00;;
47912;SDS011;33676;51.006;17.180;2023-04-03T03:38:32;4.60;;;2.60;;
47912;SDS011;33676;51.006;17.180;2023-04-03T03:41:00;4.10;;;2.70;;
47912;SDS011;33676;51.006;17.180;2023-04-03T03:43:29;5.30;;;3.10;;
47912;SDS011;33676;51.006;17.180;2023-04-03T03:45:58;8.60;;;4.10;;
47912;SDS011;33676;51.006;17.180;2023-04-03T03:48:26;6.30;;;3.70;;
47912;SDS011;33676;51.006;17.180;2023-04-03T03:50:55;5.10;;;3.20;;
47912;SDS011;33676;51.006;17.180;2023-04-03T03:53:23;7.60;;;3.40;;
47912;SDS011;33676;51.006;17.180;2023-04-03T03:55:52;5.40;;;2.50;;
47912;SDS011;33676;51.006;17.180;2023-04-03T03:58:21;7.50;;;3.50;;
47912;SDS011;33676;51.006;17.180;2023-04-03T04:00:49;9.30;;;3.30;;
47912;SDS011;33676;51.006;17.180;2023-04-03T04:03:18;6.70;;;3.00;;
47912;SDS011;33676;51.006;17.180;2023-04-03T04:05:46;5.90;;;3.30;;
47912;SDS011;33676;51.006;17.180;2023-04-03T04:08:15;4.00;;;2.50;;
47912;SDS011;33676;51.006;17.180;2023-04-03T04:10:44;7.00;;;3.20;;
47912;SDS011;33676;51.006;17.180;2023-04-03T04:13:12;6.60;;;3.80;;
47912;SDS011;33676;51.006;17.180;2023-04-03T04:15:42;10.70;;;4.00;;
47912;SDS011;33676;51.006;17.180;2023-04-03T04:18:10;5.30;;;3.00;;
47912;SDS011;33676;51.006;17.180;2023-04-03T04:20:39;6.40;;;3.00;;
47912;SDS011;33676;51.006;17.180;2023-04-03T04:23:07;7.00;;;4.00;;
47912;SDS011;33676;51.006;17.180;2023-04-03T04:25:36;5.60;;;4.20;;
47912;SDS011;33676;51.006;17.180;2023-04-03T04:28:05;10.90;;;3.90;;
47912;SDS011;33676;51.006;17.180;2023-04-03T04:30:33;7.20;;;3.70;;
47912;SDS011;33676;51.006;17.180;2023-04-03T04:33:02;10.10;;;4.20;;
47912;SDS011;33676;51.006;17.180;2023-04-03T04:35:31;4.80;;;3.70;;
47912;SDS011;33676;51.006;17.180;2023-04-03T04:38:00;9.00;;;4.10;;
47912;SDS011;33676;51.006;17.180;2023-04-03T04:40:28;6.70;;;5.10;;
47912;SDS011;33676;51.006;17.180;2023-04-03T04:42:57;5.40;;;3.20;;
47912;SDS011;33676;51.006;17.180;2023-04-03T04:45:25;4.90;;;3.80;;
47912;SDS011;33676;51.006;17.180;2023-04-03T04:47:57;11.80;;;4.90;;
47912;SDS011;33676;51.006;17.180;2023-04-03T04:50:25;8.50;;;4.00;;
47912;SDS011;33676;51.006;17.180;2023-04-03T04:52:53;8.20;;;4.30;;
47912;SDS011;33676;51.006;17.180;2023-04-03T04:55:22;8.10;;;4.60;;
47912;SDS011;33676;51.006;17.180;2023-04-03T04:57:50;8.00;;;4.60;;
47912;SDS011;33676;51.006;17.180;2023-04-03T05:00:19;7.40;;;3.90;;
47912;SDS011;33676;51.006;17.180;2023-04-03T05:02:48;11.80;;;3.70;;
47912;SDS011;33676;51.006;17.180;2023-04-03T05:05:16;6.80;;;3.70;;
47912;SDS011;33676;51.006;17.180;2023-04-03T05:07:45;4.50;;;3.60;;
47912;SDS011;33676;51.006;17.180;2023-04-03T05:10:14;8.30;;;3.80;;
47912;SDS011;33676;51.006;17.180;2023-04-03T05:12:42;7.50;;;3.30;;
47912;SDS011;33676;51.006;17.180;2023-04-03T05:15:11;6.00;;;4.90;;
47912;SDS011;33676;51.006;17.180;2023-04-03T05:17:39;7.60;;;3.60;;
47912;SDS011;33676;51.006;17.180;2023-04-03T05:20:08;9.20;;;3.50;;
47912;SDS011;33676;51.006;17.180;2023-04-03T05:22:37;3.60;;;2.60;;
47912;SDS011;33676;51.006;17.180;2023-04-03T05:25:07;8.80;;;4.40;;
47912;SDS011;33676;51.006;17.180;2023-04-03T05:27:36;4.90;;;3.00;;
47912;SDS011;33676;51.006;17.180;2023-04-03T05:30:05;3.40;;;2.60;;
47912;SDS011;33676;51.006;17.180;2023-04-03T05:32:34;5.90;;;3.80;;
47912;SDS011;33676;51.006;17.180;2023-04-03T05:35:03;8.10;;;3.10;;
47912;SDS011;33676;51.006;17.180;2023-04-03T05:37:34;8.20;;;3.30;;
47912;SDS011;33676;51.006;17.180;2023-04-03T05:40:04;5.20;;;3.10;;
47912;SDS011;33676;51.006;17.180;2023-04-03T05:42:33;7.60;;;3.80;;
47912;SDS011;33676;51.006;17.180;2023-04-03T05:45:02;9.40;;;4.10;;
47912;SDS011;33676;51.006;17.180;2023-04-03T05:47:30;7.10;;;3.50;;
47912;SDS011;33676;51.006;17.180;2023-04-03T05:49:59;8.40;;;3.30;;
47912;SDS011;33676;51.006;17.180;2023-04-03T05:52:30;4.90;;;3.40;;
47912;SDS011;33676;51.006;17.180;2023-04-03T05:55:02;6.10;;;3.70;;
47912;SDS011;33676;51.006;17.180;2023-04-03T05:57:32;5.20;;;2.60;;
47912;SDS011;33676;51.006;17.180;2023-04-03T06:00:00;6.50;;;3.50;;
47912;SDS011;33676;51.006;17.180;2023-04-03T06:02:29;4.30;;;3.30;;
47912;SDS011;33676;51.006;17.180;2023-04-03T06:04:59;5.90;;;3.30;;
47912;SDS011;33676;51.006;17.180;2023-04-03T06:07:28;7.30;;;3.90;;
47912;SDS011;33676;51.006;17.180;2023-04-03T06:09:57;8.70;;;3.80;;
47912;SDS011;33676;51.006;17.180;2023-04-03T06:12:25;4.90;;;3.10;;
47912;SDS011;33676;51.006;17.180;2023-04-03T06:14:54;4.90;;;4.00;;
47912;SDS011;33676;51.006;17.180;2023-04-03T06:17:22;5.60;;;3.10;;
47912;SDS011;33676;51.006;17.180;2023-04-03T06:19:51;5.50;;;3.20;;
47912;SDS011;33676;51.006;17.180;2023-04-03T06:22:20;6.40;;;3.10;;
47912;SDS011;33676;51.006;17.180;2023-04-03T06:24:49;4.70;;;3.80;;
47912;SDS011;33676;51.006;17.180;2023-04-03T06:27:18;7.30;;;3.20;;
47912;SDS011;33676;51.006;17.180;2023-04-03T06:29:46;4.40;;;3.10;;
47912;SDS011;33676;51.006;17.180;2023-04-03T06:32:15;3.20;;;2.50;;
47912;SDS011;33676;51.006;17.180;2023-04-03T06:34:44;3.90;;;3.10;;
47912;SDS011;33676;51.006;17.180;2023-04-03T06:37:18;4.70;;;3.20;;
47912;SDS011;33676;51.006;17.180;2023-04-03T06:39:48;4.40;;;3.10;;
47912;SDS011;33676;51.006;17.180;2023-04-03T06:42:17;10.20;;;4.60;;
47912;SDS011;33676;51.006;17.180;2023-04-03T06:44:46;5.90;;;4.50;;
47912;SDS011;33676;51.006;17.180;2023-04-03T06:47:15;4.60;;;3.20;;
47912;SDS011;33676;51.006;17.180;2023-04-03T06:49:44;8.70;;;3.70;;
47912;SDS011;33676;51.006;17.180;2023-04-03T06:52:12;4.10;;;3.30;;
47912;SDS011;33676;51.006;17.180;2023-04-03T06:54:41;9.50;;;3.80;;
47912;SDS011;33676;51.006;17.180;2023-04-03T06:57:09;5.80;;;3.70;;
47912;SDS011;33676;51.006;17.180;2023-04-03T06:59:38;7.30;;;2.90;;
47912;SDS011;33676;51.006;17.180;2023-04-03T07:02:06;3.90;;;2.70;;
47912;SDS011;33676;51.006;17.180;2023-04-03T07:04:37;5.60;;;3.90;;
47912;SDS011;33676;51.006;17.180;2023-04-03T07:07:05;8.00;;;3.30;;
47912;SDS011;33676;51.006;17.180;2023-04-03T07:09:34;5.30;;;3.60;;
47912;SDS011;33676;51.006;17.180;2023-04-03T07:12:02;4.70;;;3.20;;
47912;SDS011;33676;51.006;17.180;2023-04-03T07:14:31;6.50;;;3.80;;
47912;SDS011;33676;51.006;17.180;2023-04-03T07:16:59;4.50;;;2.80;;
47912;SDS011;33676;51.006;17.180;2023-04-03T07:19:28;4.20;;;3.20;;
47912;SDS011;33676;51.006;17.180;2023-04-03T07:21:57;4.70;;;3.90;;
47912;SDS011;33676;51.006;17.180;2023-04-03T07:24:25;4.40;;;3.10;;
47912;SDS011;33676;51.006;17.180;2023-04-03T07:26:54;7.70;;;4.60;;
47912;SDS011;33676;51.006;17.180;2023-04-03T07:29:22;7.10;;;3.90;;
47912;SDS011;33676;51.006;17.180;2023-04-03T07:31:51;9.60;;;4.30;;
47912;SDS011;33676;51.006;17.180;2023-04-03T07:34:20;9.30;;;3.60;;
47912;SDS011;33676;51.006;17.180;2023-04-03T07:36:49;8.00;;;3.60;;
47912;SDS011;33676;51.006;17.180;2023-04-03T07:39:17;7.20;;;3.70;;
47912;SDS011;33676;51.006;17.180;2023-04-03T07:41:45;4.10;;;3.40;;
47912;SDS011;33676;51.006;17.180;2023-04-03T07:44:14;4.20;;;2.80;;
47912;SDS011;33676;51.006;17.180;2023-04-03T07:46:42;4.30;;;3.80;;
47912;SDS011;33676;51.006;17.180;2023-04-03T07:49:11;4.20;;;2.90;;
47912;SDS011;33676;51.006;17.180;2023-04-03T07:51:39;4.60;;;2.50;;
47912;SDS011;33676;51.006;17.180;2023-04-03T07:54:08;4.20;;;3.40;;
47912;SDS011;33676;51.006;17.180;2023-04-03T07:56:37;9.20;;;4.60;;
47912;SDS011;33676;51.006;17.180;2023-04-03T07:59:05;3.30;;;2.80;;
47912;SDS011;33676;51.006;17.180;2023-04-03T08:01:34;3.10;;;2.70;;
47912;SDS011;33676;51.006;17.180;2023-04-03T08:04:03;6.30;;;3.10;;
47912;SDS011;33676;51.006;17.180;2023-04-03T08:06:31;5.20;;;2.50;;
47912;SDS011;33676;51.006;17.180;2023-04-03T08:09:15;8.20;;;2.80;;
47912;SDS011;33676;51.006;17.180;2023-04-03T08:11:44;4.30;;;2.70;;
47912;SDS011;33676;51.006;17.180;2023-04-03T08:14:13;3.90;;;2.60;;
47912;SDS011;33676;51.006;17.180;2023-04-03T08:16:47;4.50;;;3.20;;
47912;SDS011;33676;51.006;17.180;2023-04-03T08:19:16;4.10;;;2.60;;
47912;SDS011;33676;51.006;17.180;2023-04-03T08:21:54;6.10;;;3.30;;
47912;SDS011;33676;51.006;17.180;2023-04-03T08:24:22;3.00;;;2.70;;
47912;SDS011;33676;51.006;17.180;2023-04-03T08:26:51;3.00;;;2.70;;
47912;SDS011;33676;51.006;17.180;2023-04-03T08:29:19;3.30;;;2.40;;
47912;SDS011;33676;51.006;17.180;2023-04-03T08:31:49;5.50;;;2.80;;
47912;SDS011;33676;51.006;17.180;2023-04-03T08:34:19;8.00;;;3.30;;
47912;SDS011;33676;51.006;17.180;2023-04-03T08:36:48;3.70;;;2.60;;
47912;SDS011;33676;51.006;17.180;2023-04-03T08:39:16;6.90;;;2.20;;
47912;SDS011;33676;51.006;17.180;2023-04-03T08:41:45;1.70;;;1.60;;
47912;SDS011;33676;51.006;17.180;2023-04-03T08:44:39;3.10;;;2.80;;
47912;SDS011;33676;51.006;17.180;2023-04-03T08:48:15;4.90;;;2.40;;
47912;SDS011;33676;51.006;17.180;2023-04-03T08:50:18;4.20;;;3.00;;
47912;SDS011;33676;51.006;17.180;2023-04-03T08:52:58;3.20;;;2.10;;
47912;SDS011;33676;51.006;17.180;2023-04-03T08:55:49;2.50;;;2.30;;
47912;SDS011;33676;51.006;17.180;2023-04-03T08:58:24;3.90;;;2.90;;
47912;SDS011;33676;51.006;17.180;2023-04-03T09:01:03;6.00;;;2.10;;
47912;SDS011;33676;51.006;17.180;2023-04-03T09:03:38;2.30;;;2.10;;
47912;SDS011;33676;51.006;17.180;2023-04-03T09:06:17;4.10;;;2.60;;
47912;SDS011;33676;51.006;17.180;2023-04-03T09:09:39;4.20;;;2.40;;
47912;SDS011;33676;51.006;17.180;2023-04-03T09:12:06;3.20;;;2.90;;
47912;SDS011;33676;51.006;17.180;2023-04-03T09:20:39;1.50;;;1.40;;
47912;SDS011;33676;51.006;17.180;2023-04-03T09:23:15;2.00;;;1.30;;
47912;SDS011;33676;51.006;17.180;2023-04-03T09:25:45;1.80;;;1.60;;
47912;SDS011;33676;51.006;17.180;2023-04-03T09:28:14;4.80;;;2.40;;
47912;SDS011;33676;51.006;17.180;2023-04-03T09:30:43;1.50;;;1.20;;
47912;SDS011;33676;51.006;17.180;2023-04-03T09:33:12;1.70;;;1.60;;
47912;SDS011;33676;51.006;17.180;2023-04-03T09:35:41;9.50;;;2.00;;
47912;SDS011;33676;51.006;17.180;2023-04-03T09:38:18;2.30;;;1.80;;
47912;SDS011;33676;51.006;17.180;2023-04-03T09:41:02;2.40;;;2.00;;
47912;SDS011;33676;51.006;17.180;2023-04-03T09:43:35;3.20;;;1.90;;
47912;SDS011;33676;51.006;17.180;2023-04-03T09:46:29;1.70;;;1.60;;
47912;SDS011;33676;51.006;17.180;2023-04-03T09:49:02;2.90;;;1.30;;
47912;SDS011;33676;51.006;17.180;2023-04-03T09:51:37;4.70;;;3.20;;
47912;SDS011;33676;51.006;17.180;2023-04-03T09:58:02;3.00;;;2.20;;
47912;SDS011;33676;51.006;17.180;2023-04-03T10:00:34;2.80;;;1.80;;
47912;SDS011;33676;51.006;17.180;2023-04-03T10:03:23;4.60;;;2.50;;
47912;SDS011;33676;51.006;17.180;2023-04-03T10:06:04;3.50;;;1.50;;
47912;SDS011;33676;51.006;17.180;2023-04-03T10:09:04;3.90;;;2.10;;
47912;SDS011;33676;51.006;17.180;2023-04-03T10:11:34;2.50;;;1.90;;
47912;SDS011;33676;51.006;17.180;2023-04-03T10:14:04;2.70;;;2.20;;
47912;SDS011;33676;51.006;17.180;2023-04-03T10:16:41;2.90;;;2.20;;
47912;SDS011;33676;51.006;17.180;2023-04-03T10:19:33;3.30;;;2.50;;
47912;SDS011;33676;51.006;17.180;2023-04-03T10:22:16;4.60;;;2.40;;
47912;SDS011;33676;51.006;17.180;2023-04-03T10:28:00;5.20;;;2.00;;
47912;SDS011;33676;51.006;17.180;2023-04-03T10:30:48;2.30;;;2.00;;
47912;SDS011;33676;51.006;17.180;2023-04-03T10:33:59;2.30;;;2.00;;
47912;SDS011;33676;51.006;17.180;2023-04-03T10:36:43;3.60;;;2.10;;
47912;SDS011;33676;51.006;17.180;2023-04-03T10:42:46;3.60;;;2.00;;
47912;SDS011;33676;51.006;17.180;2023-04-03T10:51:54;2.50;;;2.30;;
47912;SDS011;33676;51.006;17.180;2023-04-03T10:55:09;3.10;;;1.90;;
47912;SDS011;33676;51.006;17.180;2023-04-03T10:57:41;1.80;;;1.70;;
47912;SDS011;33676;51.006;17.180;2023-04-03T11:00:41;4.00;;;2.00;;
47912;SDS011;33676;51.006;17.180;2023-04-03T11:03:26;1.80;;;1.70;;
47912;SDS011;33676;51.006;17.180;2023-04-03T11:06:04;2.50;;;2.20;;
47912;SDS011;33676;51.006;17.180;2023-04-03T11:08:49;2.30;;;1.60;;
47912;SDS011;33676;51.006;17.180;2023-04-03T11:11:36;2.90;;;2.20;;
47912;SDS011;33676;51.006;17.180;2023-04-03T11:22:57;2.70;;;2.40;;
47912;SDS011;33676;51.006;17.180;2023-04-03T11:25:31;2.60;;;2.30;;
47912;SDS011;33676;51.006;17.180;2023-04-03T11:28:05;2.50;;;1.60;;
47912;SDS011;33676;51.006;17.180;2023-04-03T11:36:22;2.20;;;1.50;;
47912;SDS011;33676;51.006;17.180;2023-04-03T11:39:20;2.30;;;1.50;;
47912;SDS011;33676;51.006;17.180;2023-04-03T11:41:53;2.20;;;1.60;;
47912;SDS011;33676;51.006;17.180;2023-04-03T11:44:38;2.30;;;2.10;;
47912;SDS011;33676;51.006;17.180;2023-04-03T11:47:11;2.30;;;1.90;;
47912;SDS011;33676;51.006;17.180;2023-04-03T11:50:04;2.40;;;2.20;;
47912;SDS011;33676;51.006;17.180;2023-04-03T11:58:02;2.30;;;2.10;;
47912;SDS011;33676;51.006;17.180;2023-04-03T12:08:48;2.70;;;2.00;;
47912;SDS011;33676;51.006;17.180;2023-04-03T12:11:28;2.20;;;1.80;;
47912;SDS011;33676;51.006;17.180;2023-04-03T12:35:47;2.70;;;2.50;;
47912;SDS011;33676;51.006;17.180;2023-04-03T12:46:59;2.20;;;2.10;;
47912;SDS011;33676;51.006;17.180;2023-04-03T12:49:41;2.30;;;2.10;;
47912;SDS011;33676;51.006;17.180;2023-04-03T12:52:44;2.70;;;2.20;;
47912;SDS011;33676;51.006;17.180;2023-04-03T12:55:18;2.30;;;2.20;;
47912;SDS011;33676;51.006;17.180;2023-04-03T12:57:49;2.40;;;2.00;;
47912;SDS011;33676;51.006;17.180;2023-04-03T13:00:35;2.50;;;2.20;;
47912;SDS011;33676;51.006;17.180;2023-04-03T13:03:56;3.60;;;2.50;;
47912;SDS011;33676;51.006;17.180;2023-04-03T13:06:47;2.80;;;2.60;;
47912;SDS011;33676;51.006;17.180;2023-04-03T13:11:58;2.30;;;2.20;;
47912;SDS011;33676;51.006;17.180;2023-04-03T13:14:56;3.10;;;2.70;;
47912;SDS011;33676;51.006;17.180;2023-04-03T13:17:28;3.10;;;2.60;;
47912;SDS011;33676;51.006;17.180;2023-04-03T13:19:56;4.00;;;3.70;;
47912;SDS011;33676;51.006;17.180;2023-04-03T13:22:43;3.80;;;2.90;;
47912;SDS011;33676;51.006;17.180;2023-04-03T13:25:20;2.00;;;1.90;;
47912;SDS011;33676;51.006;17.180;2023-04-03T13:27:51;2.70;;;2.60;;
47912;SDS011;33676;51.006;17.180;2023-04-03T13:30:38;2.90;;;2.40;;
47912;SDS011;33676;51.006;17.180;2023-04-03T13:33:26;4.50;;;3.10;;
47912;SDS011;33676;51.006;17.180;2023-04-03T13:36:18;2.80;;;2.60;;
47912;SDS011;33676;51.006;17.180;2023-04-03T13:41:37;3.90;;;3.60;;
47912;SDS011;33676;51.006;17.180;2023-04-03T13:46:52;2.20;;;2.00;;
47912;SDS011;33676;51.006;17.180;2023-04-03T13:54:57;2.50;;;1.90;;
47912;SDS011;33676;51.006;17.180;2023-04-03T13:57:30;3.50;;;3.00;;
47912;SDS011;33676;51.006;17.180;2023-04-03T14:02:38;1.90;;;1.80;;
47912;SDS011;33676;51.006;17.180;2023-04-03T14:05:08;2.40;;;2.20;;
47912;SDS011;33676;51.006;17.180;2023-04-03T14:07:36;2.00;;;1.90;;
47912;SDS011;33676;51.006;17.180;2023-04-03T14:10:06;3.30;;;3.00;;
47912;SDS011;33676;51.006;17.180;2023-04-03T14:12:36;2.00;;;1.70;;
47912;SDS011;33676;51.006;17.180;2023-04-03T14:18:21;3.70;;;2.10;;
47912;SDS011;33676;51.006;17.180;2023-04-03T14:20:49;1.90;;;1.80;;
47912;SDS011;33676;51.006;17.180;2023-04-03T14:23:19;2.40;;;2.00;;
47912;SDS011;33676;51.006;17.180;2023-04-03T14:25:48;2.20;;;2.10;;
47912;SDS011;33676;51.006;17.180;2023-04-03T14:28:20;2.20;;;1.70;;
47912;SDS011;33676;51.006;17.180;2023-04-03T14:30:50;2.60;;;1.80;;
47912;SDS011;33676;51.006;17.180;2023-04-03T14:33:21;2.10;;;1.90;;
47912;SDS011;33676;51.006;17.180;2023-04-03T14:35:50;2.70;;;2.50;;
47912;SDS011;33676;51.006;17.180;2023-04-03T14:38:27;3.30;;;1.80;;
47912;SDS011;33676;51.006;17.180;2023-04-03T14:40:57;2.20;;;1.90;;
47912;SDS011;33676;51.006;17.180;2023-04-03T14:43:44;2.30;;;2.10;;
47912;SDS011;33676;51.006;17.180;2023-04-03T14:46:24;2.40;;;1.90;;
47912;SDS011;33676;51.006;17.180;2023-04-03T14:49:15;1.60;;;1.30;;
47912;SDS011;33676;51.006;17.180;2023-04-03T14:51:49;3.10;;;1.50;;
47912;SDS011;33676;51.006;17.180;2023-04-03T14:54:20;3.00;;;2.80;;
47912;SDS011;33676;51.006;17.180;2023-04-03T14:56:54;4.50;;;4.10;;
47912;SDS011;33676;51.006;17.180;2023-04-03T14:59:42;3.20;;;2.80;;
47912;SDS011;33676;51.006;17.180;2023-04-03T15:02:37;2.90;;;2.70;;
47912;SDS011;33676;51.006;17.180;2023-04-03T15:05:09;3.10;;;2.60;;
47912;SDS011;33676;51.006;17.180;2023-04-03T15:07:53;2.60;;;2.40;;
47912;SDS011;33676;51.006;17.180;2023-04-03T15:10:28;3.80;;;3.30;;
47912;SDS011;33676;51.006;17.180;2023-04-03T15:12:58;3.30;;;2.50;;
47912;SDS011;33676;51.006;17.180;2023-04-03T15:15:28;3.80;;;3.00;;
47912;SDS011;33676;51.006;17.180;2023-04-03T15:17:58;3.40;;;3.20;;
47912;SDS011;33676;51.006;17.180;2023-04-03T15:20:28;4.60;;;3.00;;
47912;SDS011;33676;51.006;17.180;2023-04-03T15:23:00;2.90;;;2.70;;
47912;SDS011;33676;51.006;17.180;2023-04-03T15:25:29;3.80;;;2.50;;
47912;SDS011;33676;51.006;17.180;2023-04-03T15:27:58;4.00;;;3.60;;
47912;SDS011;33676;51.006;17.180;2023-04-03T15:30:28;3.70;;;2.30;;
47912;SDS011;33676;51.006;17.180;2023-04-03T15:32:56;3.60;;;3.30;;
47912;SDS011;33676;51.006;17.180;2023-04-03T15:35:25;3.10;;;2.90;;
47912;SDS011;33676;51.006;17.180;2023-04-03T15:37:54;2.60;;;2.30;;
47912;SDS011;33676;51.006;17.180;2023-04-03T15:40:23;3.90;;;2.20;;
47912;SDS011;33676;51.006;17.180;2023-04-03T15:42:51;2.70;;;2.50;;
47912;SDS011;33676;51.006;17.180;2023-04-03T15:45:21;2.30;;;2.20;;
47912;SDS011;33676;51.006;17.180;2023-04-03T15:47:50;2.10;;;2.00;;
47912;SDS011;33676;51.006;17.180;2023-04-03T15:50:19;2.10;;;2.00;;
47912;SDS011;33676;51.006;17.180;2023-04-03T15:52:51;1.90;;;1.80;;
47912;SDS011;33676;51.006;17.180;2023-04-03T15:55:23;4.50;;;4.10;;
47912;SDS011;33676;51.006;17.180;2023-04-03T15:57:54;5.40;;;4.90;;
47912;SDS011;33676;51.006;17.180;2023-04-03T16:00:24;5.60;;;5.10;;
47912;SDS011;33676;51.006;17.180;2023-04-03T16:06:15;3.90;;;3.60;;
47912;SDS011;33676;51.006;17.180;2023-04-03T16:08:46;4.00;;;2.70;;
47912;SDS011;33676;51.006;17.180;2023-04-03T16:11:17;2.50;;;2.30;;
47912;SDS011;33676;51.006;17.180;2023-04-03T16:13:45;3.20;;;2.50;;
47912;SDS011;33676;51.006;17.180;2023-04-03T16:16:13;3.00;;;2.40;;
47912;SDS011;33676;51.006;17.180;2023-04-03T16:18:42;2.90;;;2.50;;
47912;SDS011;33676;51.006;17.180;2023-04-03T16:21:10;4.20;;;3.90;;
47912;SDS011;33676;51.006;17.180;2023-04-03T16:23:40;2.70;;;1.90;;
47912;SDS011;33676;51.006;17.180;2023-04-03T16:26:09;3.20;;;2.90;;
47912;SDS011;33676;51.006;17.180;2023-04-03T16:28:37;5.00;;;3.50;;
47912;SDS011;33676;51.006;17.180;2023-04-03T16:31:06;10.80;;;6.30;;
47912;SDS011;33676;51.006;17.180;2023-04-03T16:33:35;5.90;;;4.70;;
47912;SDS011;33676;51.006;17.180;2023-04-03T16:36:05;3.80;;;3.40;;
47912;SDS011;33676;51.006;17.180;2023-04-03T16:38:35;5.80;;;5.10;;
47912;SDS011;33676;51.006;17.180;2023-04-03T16:41:04;6.20;;;3.60;;
47912;SDS011;33676;51.006;17.180;2023-04-03T16:43:33;5.00;;;3.80;;
47912;SDS011;33676;51.006;17.180;2023-04-03T16:46:03;5.10;;;3.50;;
47912;SDS011;33676;51.006;17.180;2023-04-03T16:48:32;3.90;;;3.00;;
47912;SDS011;33676;51.006;17.180;2023-04-03T16:51:01;4.30;;;3.30;;
47912;SDS011;33676;51.006;17.180;2023-04-03T16:53:29;4.90;;;3.20;;
47912;SDS011;33676;51.006;17.180;2023-04-03T16:55:58;3.40;;;2.50;;
47912;SDS011;33676;51.006;17.180;2023-04-03T17:08:11;3.00;;;2.80;;
47912;SDS011;33676;51.006;17.180;2023-04-03T17:10:39;2.30;;;2.10;;